Fullerton, California
Current Conditions -  °F | °C
As of 10:53 AM on Thursday 30 Oct 2014 (Local Time) from KFUL Reporting Station
Clear Clear  
Wind Chill: 76°   Ceiling: Unl
Heat Index: 76°   Visibility: 10mi
Dew Point: 51°   Wind: 5mph
Humidity: 42%   Direction: 70°ENE
Pressure: 29.97"   Gusts: NA
Location:  33.87°N, 117.92°W
Report Text: KFUL 301753Z 07004KT 10SM CLR 24/11 A2997 RMK AO2 SLP149 T02440106 10244 20144 50001
Loading
Personal Weather Stations






























Interactive Weather Map
Tropical Storm Tracking
New forecast layout! Learn more

10-Day Weather Forecast

Advertisements
Track Severe Weather on mobile